Time;durP1;ratioP1;P1;durP2;ratioP2;P2;SDS_P1;SDS_P2;PMS_P1;PMS_P2;Temp;Humidity;BMP_temperature;BMP_pressure;BME280_temperature;BME280_humidity;BME280_pressure;Samples;Min_cycle;Max_cycle;Signal;HPM_P1;HPM_P2
2022/01/26 00:06:21;;;;;;;2.92;0.60;;;;;;;;;;5032285;28;20033;-39
2022/01/26 00:08:48;;;;;;;2.72;0.80;;;;;;;;;;5031493;28;20037;-39
2022/01/26 00:11:15;;;;;;;3.00;0.73;;;;;;;;;;5024432;28;20037;-40
2022/01/26 00:13:42;;;;;;;2.45;0.82;;;;;;;;;;5003904;28;20021;-39
2022/01/26 00:16:19;;;;;;;1.98;0.80;;;;;;;;;;5029247;28;20041;-40
2022/01/26 00:18:46;;;;;;;1.85;0.90;;;;;;;;;;5024495;28;20084;-39
2022/01/26 00:21:24;;;;;;;1.77;0.90;;;;;;;;;;5004245;28;20052;-39
2022/01/26 00:26:31;;;;;;;2.88;1.60;;;;;;;;;;5030047;28;20491;-39
2022/01/26 00:29:13;;;;;;;2.10;1.10;;;;;;;;;;5029077;28;20038;-40
2022/01/26 00:40:07;;;;;;;2.42;1.60;;;;;;;;;;5029904;28;20053;-40
2022/01/26 00:42:38;;;;;;;3.00;1.00;;;;;;;;;;5012276;28;20033;-40
2022/01/26 00:45:09;;;;;;;1.90;1.05;;;;;;;;;;5011373;28;20036;-40
2022/01/26 00:47:37;;;;;;;2.22;1.00;;;;;;;;;;5028065;28;20041;-40
2022/01/26 00:50:09;;;;;;;2.05;0.90;;;;;;;;;;5011014;28;20032;-40
2022/01/26 00:52:41;;;;;;;2.72;0.82;;;;;;;;;;5027484;28;20038;-39
2022/01/26 00:55:10;;;;;;;3.38;0.70;;;;;;;;;;5029107;28;20029;-39
2022/01/26 00:57:37;;;;;;;1.45;0.80;;;;;;;;;;5028155;28;20120;-39
2022/01/26 01:00:07;;;;;;;1.55;0.93;;;;;;;;;;5029957;28;20073;-39
2022/01/26 01:02:34;;;;;;;5.53;3.22;;;;;;;;;;5029474;28;20034;-39
2022/01/26 01:05:07;;;;;;;4.18;2.00;;;;;;;;;;5029695;28;20029;-39
2022/01/26 01:07:39;;;;;;;5.97;1.30;;;;;;;;;;5028610;28;20048;-39
2022/01/26 01:10:06;;;;;;;1.07;0.70;;;;;;;;;;5029608;28;20025;-40
2022/01/26 01:12:40;;;;;;;2.55;0.90;;;;;;;;;;5030148;28;20566;-40
2022/01/26 01:15:07;;;;;;;1.88;0.85;;;;;;;;;;5030004;28;20064;-41
2022/01/26 01:17:42;;;;;;;1.38;0.80;;;;;;;;;;5028883;28;20021;-40
2022/01/26 01:28:47;;;;;;;1.90;0.85;;;;;;;;;;5028670;28;20395;-40
2022/01/26 01:31:28;;;;;;;2.90;0.90;;;;;;;;;;5027506;28;20049;-40
2022/01/26 01:33:55;;;;;;;1.08;0.70;;;;;;;;;;5027528;28;20064;-40
2022/01/26 01:36:23;;;;;;;2.28;0.90;;;;;;;;;;5030573;28;20044;-40
2022/01/26 01:38:50;;;;;;;2.75;1.20;;;;;;;;;;5027863;28;20037;-39
2022/01/26 01:41:17;;;;;;;2.88;1.10;;;;;;;;;;5023845;28;20053;-40
2022/01/26 01:43:44;;;;;;;2.72;1.33;;;;;;;;;;5023948;28;20080;-40
2022/01/26 01:46:11;;;;;;;3.83;1.40;;;;;;;;;;5010458;28;20037;-40
2022/01/26 01:48:38;;;;;;;4.05;1.20;;;;;;;;;;5009593;28;20387;-39
2022/01/26 01:51:09;;;;;;;6.18;1.67;;;;;;;;;;5020382;28;20112;-40
2022/01/26 01:53:40;;;;;;;1.42;0.90;;;;;;;;;;5025423;28;20041;-39
2022/01/26 01:56:08;;;;;;;3.35;1.20;;;;;;;;;;5024406;28;20498;-40
2022/01/26 01:58:36;;;;;;;6.45;0.88;;;;;;;;;;5021200;28;20540;-40
2022/01/26 02:01:04;;;;;;;3.00;0.90;;;;;;;;;;5021830;28;20041;-40
2022/01/26 02:03:31;;;;;;;8.40;1.17;;;;;;;;;;5022848;28;20044;-40
2022/01/26 02:05:58;;;;;;;1.95;0.80;;;;;;;;;;5027294;28;20060;-40
2022/01/26 02:08:25;;;;;;;8.10;0.70;;;;;;;;;;5025529;28;20029;-40
2022/01/26 02:10:53;;;;;;;2.33;0.85;;;;;;;;;;5026003;28;20045;-40
2022/01/26 02:13:28;;;;;;;3.67;0.63;;;;;;;;;;5023616;28;20030;-40
2022/01/26 02:21:27;;;;;;;6.97;0.80;;;;;;;;;;5021608;28;20068;-42
2022/01/26 02:52:13;;;;;;;4.10;0.52;;;;;;;;;;5030280;28;20053;-41
2022/01/26 02:54:50;;;;;;;3.83;0.57;;;;;;;;;;5029737;28;20037;-41
2022/01/26 02:57:39;;;;;;;1.10;0.68;;;;;;;;;;5029199;28;20068;-40
2022/01/26 03:00:35;;;;;;;1.80;0.95;;;;;;;;;;5030033;28;20037;-39
2022/01/26 03:03:16;;;;;;;1.98;0.60;;;;;;;;;;5029036;28;20033;-40
2022/01/26 03:05:53;;;;;;;3.13;0.63;;;;;;;;;;5029732;28;20029;-40
2022/01/26 03:11:25;;;;;;;1.73;0.50;;;;;;;;;;5003219;28;20068;-40
2022/01/26 03:14:00;;;;;;;1.73;0.80;;;;;;;;;;5029113;28;20041;-42
2022/01/26 03:16:34;;;;;;;1.83;0.70;;;;;;;;;;5029319;28;20499;-42
2022/01/26 03:19:16;;;;;;;1.75;0.52;;;;;;;;;;5028260;28;20030;-40
2022/01/26 03:22:04;;;;;;;1.27;0.50;;;;;;;;;;5029626;28;20037;-43
2022/01/26 03:30:07;;;;;;;1.67;0.40;;;;;;;;;;5030503;28;20041;-40
2022/01/26 03:35:14;;;;;;;2.00;0.80;;;;;;;;;;5029981;28;21636;-40
2022/01/26 03:37:50;;;;;;;1.75;0.45;;;;;;;;;;5025789;28;20140;-39
2022/01/26 03:40:17;;;;;;;1.50;0.47;;;;;;;;;;5032418;28;20041;-39
2022/01/26 03:42:44;;;;;;;5.65;0.80;;;;;;;;;;5031941;28;20029;-39
2022/01/26 03:45:11;;;;;;;1.88;0.63;;;;;;;;;;5031431;28;20029;-39
2022/01/26 03:47:38;;;;;;;2.00;0.80;;;;;;;;;;5032484;28;20089;-40
2022/01/26 03:50:05;;;;;;;1.23;0.40;;;;;;;;;;5031372;28;20048;-39
2022/01/26 03:52:33;;;;;;;1.67;0.40;;;;;;;;;;5032636;28;20045;-39
2022/01/26 03:55:00;;;;;;;1.35;0.52;;;;;;;;;;5031711;28;20064;-39
2022/01/26 03:57:27;;;;;;;2.85;0.38;;;;;;;;;;5032094;28;20532;-39
2022/01/26 03:59:54;;;;;;;2.42;0.60;;;;;;;;;;5032151;28;20094;-40
2022/01/26 04:02:21;;;;;;;2.80;0.47;;;;;;;;;;5032173;28;20107;-40
2022/01/26 04:04:54;;;;;;;1.88;0.50;;;;;;;;;;5031172;28;20507;-38
2022/01/26 04:07:21;;;;;;;2.25;0.45;;;;;;;;;;5032639;28;20033;-39
2022/01/26 04:09:48;;;;;;;1.83;0.65;;;;;;;;;;5031458;28;20126;-40
2022/01/26 04:12:15;;;;;;;3.55;0.40;;;;;;;;;;5031452;28;20399;-39
2022/01/26 04:14:47;;;;;;;1.73;0.40;;;;;;;;;;5031947;28;20475;-39
2022/01/26 04:17:14;;;;;;;1.73;0.50;;;;;;;;;;5031155;28;20041;-40
2022/01/26 04:19:41;;;;;;;1.20;0.38;;;;;;;;;;5031577;28;20076;-39
2022/01/26 04:22:18;;;;;;;5.00;0.68;;;;;;;;;;5032005;28;20112;-40
2022/01/26 04:24:50;;;;;;;1.23;0.45;;;;;;;;;;5031618;28;20442;-39
2022/01/26 04:27:23;;;;;;;5.00;0.52;;;;;;;;;;5027520;28;20084;-40
2022/01/26 04:29:51;;;;;;;6.63;0.52;;;;;;;;;;5030831;28;20037;-39
2022/01/26 04:32:18;;;;;;;1.40;0.50;;;;;;;;;;5015498;28;20046;-39
2022/01/26 04:34:48;;;;;;;0.57;0.30;;;;;;;;;;5012342;28;20036;-39
2022/01/26 04:39:52;;;;;;;2.15;0.40;;;;;;;;;;5012263;28;20057;-39
2022/01/26 04:42:29;;;;;;;0.88;0.40;;;;;;;;;;5012344;28;20077;-38
2022/01/26 04:45:02;;;;;;;2.00;0.50;;;;;;;;;;5012282;28;20121;-39
2022/01/26 04:47:30;;;;;;;1.90;0.35;;;;;;;;;;5012051;28;20444;-39
2022/01/26 04:49:57;;;;;;;2.13;0.50;;;;;;;;;;5012061;28;20038;-39
2022/01/26 04:52:24;;;;;;;3.15;0.40;;;;;;;;;;5012196;28;20029;-40
2022/01/26 04:54:51;;;;;;;1.95;0.45;;;;;;;;;;5012047;28;20448;-40
2022/01/26 04:57:18;;;;;;;1.58;0.40;;;;;;;;;;5012137;28;20022;-39
2022/01/26 04:59:45;;;;;;;1.15;0.40;;;;;;;;;;5031836;28;20420;-39
2022/01/26 05:02:13;;;;;;;2.33;0.60;;;;;;;;;;5031592;28;20034;-39
2022/01/26 05:04:40;;;;;;;0.63;0.40;;;;;;;;;;5031351;28;20044;-39
2022/01/26 05:07:07;;;;;;;2.28;0.40;;;;;;;;;;5031811;28;20026;-39
2022/01/26 05:09:34;;;;;;;1.60;0.50;;;;;;;;;;5031124;28;20037;-39
2022/01/26 05:12:02;;;;;;;2.92;0.68;;;;;;;;;;5013681;28;20491;-39
2022/01/26 05:14:29;;;;;;;3.47;0.47;;;;;;;;;;5014214;28;20069;-39
2022/01/26 05:16:56;;;;;;;2.33;0.40;;;;;;;;;;5031161;28;20393;-39
2022/01/26 05:19:23;;;;;;;3.03;0.35;;;;;;;;;;5031515;28;20475;-39
2022/01/26 05:21:51;;;;;;;3.33;0.47;;;;;;;;;;5031014;28;20041;-39
2022/01/26 05:24:18;;;;;;;2.55;0.38;;;;;;;;;;5032235;28;20152;-38
2022/01/26 05:26:45;;;;;;;1.88;0.30;;;;;;;;;;5031650;28;20531;-39
2022/01/26 05:29:12;;;;;;;2.08;0.40;;;;;;;;;;5031246;28;20383;-39
2022/01/26 05:31:39;;;;;;;2.60;0.30;;;;;;;;;;5031453;28;20049;-39
2022/01/26 05:34:09;;;;;;;0.95;0.40;;;;;;;;;;5030867;28;20022;-39
2022/01/26 05:36:36;;;;;;;1.65;0.50;;;;;;;;;;5031792;28;20060;-38
2022/01/26 05:39:04;;;;;;;0.57;0.35;;;;;;;;;;5013106;28;20405;-39
2022/01/26 05:41:31;;;;;;;1.65;0.50;;;;;;;;;;5034784;28;20029;-38
2022/01/26 05:43:58;;;;;;;2.00;0.50;;;;;;;;;;5035452;28;20430;-39
2022/01/26 05:46:38;;;;;;;2.22;0.60;;;;;;;;;;5034864;28;20044;-39
2022/01/26 05:49:05;;;;;;;2.85;0.50;;;;;;;;;;5035499;28;20040;-39
2022/01/26 05:51:33;;;;;;;2.85;0.40;;;;;;;;;;5034622;28;20091;-39
2022/01/26 05:54:05;;;;;;;1.17;0.47;;;;;;;;;;5035515;28;20438;-39
2022/01/26 05:56:32;;;;;;;3.05;0.40;;;;;;;;;;5034775;28;20033;-38
2022/01/26 05:58:59;;;;;;;0.98;0.45;;;;;;;;;;5034300;28;20044;-39
2022/01/26 06:01:26;;;;;;;1.42;0.40;;;;;;;;;;5034718;28;20080;-38
2022/01/26 06:03:54;;;;;;;1.10;0.60;;;;;;;;;;5034985;28;20021;-37
2022/01/26 06:06:21;;;;;;;1.58;0.88;;;;;;;;;;5034612;28;20034;-38
2022/01/26 06:08:48;;;;;;;1.10;0.40;;;;;;;;;;5035194;28;20029;-37
2022/01/26 06:11:15;;;;;;;2.67;0.57;;;;;;;;;;5034550;28;20404;-38
2022/01/26 06:13:42;;;;;;;0.65;0.32;;;;;;;;;;5034702;28;20084;-38
2022/01/26 06:16:09;;;;;;;1.88;0.50;;;;;;;;;;5034673;28;20037;-38
2022/01/26 06:18:36;;;;;;;2.60;0.60;;;;;;;;;;5034439;28;20029;-37
2022/01/26 06:21:03;;;;;;;3.83;0.70;;;;;;;;;;5034918;28;20033;-38
2022/01/26 06:23:30;;;;;;;1.10;0.50;;;;;;;;;;5034367;28;20036;-38
2022/01/26 06:25:58;;;;;;;1.67;0.30;;;;;;;;;;5034585;28;20048;-38
2022/01/26 06:28:29;;;;;;;2.30;0.57;;;;;;;;;;5016356;28;20592;-38
2022/01/26 06:31:00;;;;;;;3.60;0.70;;;;;;;;;;5034177;28;20407;-38
2022/01/26 06:33:33;;;;;;;4.27;0.87;;;;;;;;;;4995258;28;20412;-38
2022/01/26 06:36:00;;;;;;;3.25;0.90;;;;;;;;;;4995109;28;20810;-38
2022/01/26 06:38:28;;;;;;;5.00;1.25;;;;;;;;;;4994781;28;20088;-38
2022/01/26 06:41:00;;;;;;;3.42;0.90;;;;;;;;;;4994908;28;20033;-38
2022/01/26 06:43:30;;;;;;;3.00;1.00;;;;;;;;;;4994619;28;20503;-38
2022/01/26 06:46:02;;;;;;;2.75;1.05;;;;;;;;;;4995118;28;20403;-38
2022/01/26 06:50:59;;;;;;;3.28;1.10;;;;;;;;;;4994481;28;20284;-39
2022/01/26 06:53:26;;;;;;;2.90;1.08;;;;;;;;;;4994817;28;20022;-38
2022/01/26 06:55:53;;;;;;;6.32;1.17;;;;;;;;;;4994734;28;20412;-37
2022/01/26 06:58:21;;;;;;;6.25;1.20;;;;;;;;;;4994745;28;20023;-38
2022/01/26 07:00:48;;;;;;;2.15;1.10;;;;;;;;;;4995172;28;20026;-38
2022/01/26 07:03:15;;;;;;;6.47;0.95;;;;;;;;;;4994518;28;20022;-37
2022/01/26 07:05:42;;;;;;;3.55;1.10;;;;;;;;;;4994383;28;20027;-38
2022/01/26 07:08:09;;;;;;;4.85;2.00;;;;;;;;;;4994264;28;20098;-37
2022/01/26 07:10:36;;;;;;;4.45;2.05;;;;;;;;;;4995130;28;20050;-38
2022/01/26 07:21:50;;;;;;;3.03;1.10;;;;;;;;;;5012316;28;20084;-34
2022/01/26 07:24:17;;;;;;;2.60;1.40;;;;;;;;;;5013420;28;20026;-34
2022/01/26 07:26:46;;;;;;;2.35;0.80;;;;;;;;;;5012658;28;20061;-34
2022/01/26 07:29:15;;;;;;;2.97;0.88;;;;;;;;;;5012436;28;20068;-34
2022/01/26 07:31:43;;;;;;;2.85;0.50;;;;;;;;;;5011881;28;20493;-34
2022/01/26 07:34:14;;;;;;;1.35;0.60;;;;;;;;;;4995284;28;20415;-34
2022/01/26 07:36:42;;;;;;;1.30;0.43;;;;;;;;;;5012746;28;20029;-34
2022/01/26 07:39:13;;;;;;;4.28;0.57;;;;;;;;;;5012710;28;20502;-34
2022/01/26 07:41:40;;;;;;;1.92;0.40;;;;;;;;;;5012569;28;20547;-32
2022/01/26 07:44:07;;;;;;;3.75;0.63;;;;;;;;;;5012784;28;20502;-32
2022/01/26 07:46:34;;;;;;;2.78;0.65;;;;;;;;;;5012813;28;20088;-31
2022/01/26 07:49:02;;;;;;;1.25;0.50;;;;;;;;;;5012580;28;20066;-33
2022/01/26 07:51:30;;;;;;;3.25;0.80;;;;;;;;;;5012910;28;20038;-33
2022/01/26 07:53:57;;;;;;;1.52;0.50;;;;;;;;;;5012699;28;20471;-33
2022/01/26 07:56:24;;;;;;;5.70;0.68;;;;;;;;;;5013053;28;20036;-33
2022/01/26 07:58:51;;;;;;;1.17;0.45;;;;;;;;;;5012335;28;20037;-35
2022/01/26 08:01:18;;;;;;;4.45;0.70;;;;;;;;;;5012710;28;20435;-32
2022/01/26 08:03:45;;;;;;;1.50;0.40;;;;;;;;;;5012174;28;20442;-32
2022/01/26 08:06:16;;;;;;;3.83;0.68;;;;;;;;;;5012166;28;20026;-32
2022/01/26 08:08:43;;;;;;;2.37;0.60;;;;;;;;;;5012450;28;20412;-32
2022/01/26 08:11:11;;;;;;;2.22;0.40;;;;;;;;;;5012592;28;20030;-32
2022/01/26 08:13:38;;;;;;;2.72;0.43;;;;;;;;;;5011750;28;20038;-32
2022/01/26 08:16:05;;;;;;;1.00;0.50;;;;;;;;;;5012411;28;20073;-32
2022/01/26 08:18:32;;;;;;;1.50;0.45;;;;;;;;;;5011627;28;20045;-32
2022/01/26 08:21:06;;;;;;;2.88;0.50;;;;;;;;;;5012675;28;20034;-32
2022/01/26 08:23:35;;;;;;;4.35;0.47;;;;;;;;;;5012293;28;20033;-32
2022/01/26 08:26:02;;;;;;;1.52;0.50;;;;;;;;;;5012489;28;20029;-32
2022/01/26 08:28:36;;;;;;;4.60;0.50;;;;;;;;;;5012652;28;20045;-32
2022/01/26 08:31:03;;;;;;;4.60;0.63;;;;;;;;;;5012427;28;20057;-32
2022/01/26 08:33:31;;;;;;;2.47;0.43;;;;;;;;;;5012141;28;20026;-32
2022/01/26 08:35:58;;;;;;;1.60;0.30;;;;;;;;;;5012088;28;20034;-32
2022/01/26 08:38:26;;;;;;;1.42;0.45;;;;;;;;;;5012251;28;20032;-32
2022/01/26 08:40:53;;;;;;;2.03;0.40;;;;;;;;;;5011763;28;20399;-33
2022/01/26 08:43:20;;;;;;;2.50;0.63;;;;;;;;;;5012452;28;20029;-32
2022/01/26 08:45:47;;;;;;;4.10;0.55;;;;;;;;;;5011657;28;20030;-32
2022/01/26 08:48:14;;;;;;;3.75;0.50;;;;;;;;;;5012068;28;20108;-32
2022/01/26 08:50:41;;;;;;;4.25;0.43;;;;;;;;;;5011861;28;20042;-32
2022/01/26 08:53:09;;;;;;;3.80;0.50;;;;;;;;;;5011694;28;20030;-32
2022/01/26 08:55:36;;;;;;;1.83;0.50;;;;;;;;;;5011739;28;20786;-32
2022/01/26 08:58:04;;;;;;;2.53;0.57;;;;;;;;;;5011300;28;20396;-32
2022/01/26 09:00:31;;;;;;;5.53;0.73;;;;;;;;;;5012061;28;20033;-32
2022/01/26 09:02:59;;;;;;;4.15;0.73;;;;;;;;;;5011626;28;20030;-32
2022/01/26 09:05:26;;;;;;;1.63;0.60;;;;;;;;;;5011409;28;20113;-32
2022/01/26 09:07:57;;;;;;;3.38;0.50;;;;;;;;;;4994018;28;20065;-32
2022/01/26 09:10:27;;;;;;;3.85;0.60;;;;;;;;;;5010932;28;20084;-32
2022/01/26 09:12:54;;;;;;;3.10;0.60;;;;;;;;;;5011575;28;20122;-33
2022/01/26 09:15:27;;;;;;;3.75;0.80;;;;;;;;;;5012799;28;20053;-33
2022/01/26 09:17:55;;;;;;;4.43;0.77;;;;;;;;;;5012069;28;20065;-33
2022/01/26 09:20:22;;;;;;;3.97;0.77;;;;;;;;;;5011366;28;20061;-32
2022/01/26 09:22:49;;;;;;;2.92;0.57;;;;;;;;;;5011027;28;20104;-33
2022/01/26 09:25:16;;;;;;;4.32;0.70;;;;;;;;;;5011478;28;20037;-39
2022/01/26 09:27:43;;;;;;;4.28;1.02;;;;;;;;;;5011459;28;20026;-33
2022/01/26 09:30:11;;;;;;;6.07;0.95;;;;;;;;;;5010919;28;20057;-33
2022/01/26 09:32:38;;;;;;;6.75;1.10;;;;;;;;;;5011710;28;20029;-33
2022/01/26 09:35:07;;;;;;;12.85;1.35;;;;;;;;;;5010833;28;20083;-33
2022/01/26 09:37:34;;;;;;;4.57;1.00;;;;;;;;;;5011443;28;20044;-32
2022/01/26 09:40:01;;;;;;;9.23;1.48;;;;;;;;;;5011218;28;20125;-32
2022/01/26 09:42:28;;;;;;;2.05;0.80;;;;;;;;;;5011043;28;20057;-32
2022/01/26 09:44:55;;;;;;;3.08;0.95;;;;;;;;;;5011133;28;20507;-33
2022/01/26 09:47:25;;;;;;;4.40;0.93;;;;;;;;;;5010855;28;20030;-33
2022/01/26 09:49:52;;;;;;;4.93;0.98;;;;;;;;;;5011139;28;20022;-32
2022/01/26 09:52:32;;;;;;;5.47;1.00;;;;;;;;;;5011138;28;20483;-32
2022/01/26 09:55:00;;;;;;;6.45;1.25;;;;;;;;;;5010808;28;20508;-33
2022/01/26 09:57:28;;;;;;;5.60;1.15;;;;;;;;;;5011045;28;20052;-33
2022/01/26 09:59:55;;;;;;;3.17;1.00;;;;;;;;;;5010784;28;20030;-33
2022/01/26 10:02:23;;;;;;;5.35;1.10;;;;;;;;;;5011188;28;20030;-33
2022/01/26 10:04:55;;;;;;;5.15;1.20;;;;;;;;;;5010889;28;20030;-33
2022/01/26 10:07:29;;;;;;;6.45;1.35;;;;;;;;;;5010925;28;20033;-32
2022/01/26 10:10:31;;;;;;;5.57;1.30;;;;;;;;;;5012942;28;20041;-33
2022/01/26 10:15:50;;;;;;;6.05;1.70;;;;;;;;;;5010055;28;20103;-33
2022/01/26 10:18:20;;;;;;;10.13;1.67;;;;;;;;;;5010637;28;20034;-32
2022/01/26 10:20:47;;;;;;;10.05;1.70;;;;;;;;;;5010344;28;20045;-33
2022/01/26 10:23:17;;;;;;;11.32;2.00;;;;;;;;;;5010076;28;20026;-33
2022/01/26 10:25:46;;;;;;;11.00;1.90;;;;;;;;;;5010541;28;20041;-33
2022/01/26 10:28:14;;;;;;;15.65;2.35;;;;;;;;;;5013934;28;20026;-33
2022/01/26 10:30:47;;;;;;;7.18;1.73;;;;;;;;;;5014280;28;20135;-32
2022/01/26 10:33:13;;;;;;;;;;;;;;;;;;5014417;28;20042;-32
2022/01/26 10:35:40;;;;;;;10.27;1.83;;;;;;;;;;5013600;28;19981;-32
2022/01/26 10:38:07;;;;;;;10.20;2.40;;;;;;;;;;5013936;28;20065;-33
2022/01/26 10:40:35;;;;;;;13.75;2.08;;;;;;;;;;5013725;28;20036;-33
2022/01/26 10:43:05;;;;;;;14.25;2.95;;;;;;;;;;5013728;28;20034;-32
2022/01/26 10:45:34;;;;;;;16.83;2.28;;;;;;;;;;5013177;28;20415;-32
2022/01/26 10:48:19;;;;;;;12.35;2.40;;;;;;;;;;5013744;28;20038;-32
2022/01/26 10:51:09;;;;;;;19.52;2.95;;;;;;;;;;5013073;28;20104;-32
2022/01/26 10:53:39;;;;;;;14.63;2.50;;;;;;;;;;5015575;28;20392;-32
2022/01/26 10:56:06;;;;;;;12.80;2.85;;;;;;;;;;5014704;28;20069;-33
2022/01/26 10:58:34;;;;;;;19.08;3.08;;;;;;;;;;5014134;28;20041;-33
2022/01/26 11:01:01;;;;;;;13.57;2.85;;;;;;;;;;5013314;28;20113;-33
2022/01/26 11:03:28;;;;;;;14.85;2.80;;;;;;;;;;5014172;28;20029;-32
2022/01/26 11:05:55;;;;;;;18.70;2.78;;;;;;;;;;5013646;28;20105;-32
2022/01/26 11:08:23;;;;;;;20.75;2.97;;;;;;;;;;5013831;28;20080;-32
2022/01/26 11:10:50;;;;;;;19.98;3.40;;;;;;;;;;4996221;28;20410;-32
2022/01/26 11:13:24;;;;;;;23.40;3.35;;;;;;;;;;5013399;28;20092;-32
2022/01/26 11:15:51;;;;;;;18.17;3.70;;;;;;;;;;5013641;28;20064;-33
2022/01/26 11:18:22;;;;;;;21.02;3.75;;;;;;;;;;5013357;28;20029;-32
2022/01/26 11:20:51;;;;;;;20.25;3.22;;;;;;;;;;5013128;28;20084;-32
2022/01/26 11:23:19;;;;;;;23.55;3.95;;;;;;;;;;5013096;28;20379;-33
2022/01/26 11:25:48;;;;;;;20.65;2.60;;;;;;;;;;4995716;28;20370;-33
2022/01/26 11:28:17;;;;;;;20.05;3.20;;;;;;;;;;5013086;28;20408;-33
2022/01/26 11:30:44;;;;;;;21.23;2.72;;;;;;;;;;5013389;28;20042;-33
2022/01/26 11:33:18;;;;;;;27.52;3.40;;;;;;;;;;5012908;28;20029;-33
2022/01/26 11:35:48;;;;;;;22.65;3.63;;;;;;;;;;5013151;28;20033;-33
2022/01/26 11:47:10;;;;;;;19.55;3.33;;;;;;;;;;5013263;28;20049;-33
2022/01/26 11:49:39;;;;;;;19.90;3.30;;;;;;;;;;5013353;28;20103;-33
2022/01/26 11:52:07;;;;;;;14.35;3.30;;;;;;;;;;5012801;28;20045;-33
2022/01/26 11:54:49;;;;;;;20.63;3.33;;;;;;;;;;5012837;28;20159;-33
2022/01/26 11:57:18;;;;;;;26.67;3.97;;;;;;;;;;5012708;28;20084;-32
2022/01/26 11:59:57;;;;;;;17.63;2.75;;;;;;;;;;5012251;28;20034;-32
2022/01/26 12:02:53;;;;;;;19.20;3.45;;;;;;;;;;5012912;28;20026;-33
2022/01/26 12:05:23;;;;;;;10.65;2.40;;;;;;;;;;5012139;28;20061;-33
2022/01/26 12:07:54;;;;;;;12.57;2.53;;;;;;;;;;5009606;28;20030;-33
2022/01/26 12:10:29;;;;;;;17.70;3.17;;;;;;;;;;4992797;28;20519;-32
2022/01/26 12:13:02;;;;;;;23.38;3.28;;;;;;;;;;4994425;28;20053;-33
2022/01/26 12:15:41;;;;;;;14.48;2.50;;;;;;;;;;5001772;28;20500;-32
2022/01/26 12:35:37;;;;;;;24.55;3.80;;;;;;;;;;5002703;28;20065;-36
2022/01/26 12:38:10;;;;;;;17.25;3.30;;;;;;;;;;5001601;28;20038;-36
2022/01/26 12:43:40;;;;;;;23.08;3.90;;;;;;;;;;4995962;28;20072;-35
2022/01/26 12:46:16;;;;;;;23.58;3.72;;;;;;;;;;4997464;28;20046;-35
2022/01/26 12:48:48;;;;;;;21.67;3.08;;;;;;;;;;5004172;28;20107;-35
2022/01/26 12:51:15;;;;;;;18.73;3.22;;;;;;;;;;5007130;28;20033;-35
2022/01/26 12:53:43;;;;;;;22.17;3.63;;;;;;;;;;5008384;28;20044;-34
2022/01/26 12:56:14;;;;;;;21.17;3.58;;;;;;;;;;5008502;28;20041;-34
2022/01/26 12:58:42;;;;;;;19.25;3.33;;;;;;;;;;5007564;28;20022;-35
2022/01/26 13:01:10;;;;;;;12.52;2.58;;;;;;;;;;5008523;28;20041;-35
2022/01/26 13:03:38;;;;;;;23.38;2.83;;;;;;;;;;5005105;28;20038;-35
2022/01/26 13:06:10;;;;;;;18.40;2.40;;;;;;;;;;4986609;28;20089;-35
2022/01/26 13:08:41;;;;;;;11.33;2.57;;;;;;;;;;5008037;28;20026;-35
2022/01/26 13:11:08;;;;;;;21.73;2.90;;;;;;;;;;5009110;28;20034;-35
2022/01/26 13:13:35;;;;;;;22.15;2.78;;;;;;;;;;5003855;28;20496;-35
2022/01/26 13:16:14;;;;;;;25.65;2.90;;;;;;;;;;4998565;28;20591;-35
2022/01/26 13:19:10;;;;;;;18.77;2.78;;;;;;;;;;5000412;28;20026;-35
2022/01/26 13:26:57;;;;;;;15.68;2.70;;;;;;;;;;5008470;28;20058;-34
2022/01/26 13:29:49;;;;;;;15.20;2.67;;;;;;;;;;5006670;28;20038;-34
2022/01/26 13:40:08;;;;;;;18.23;2.92;;;;;;;;;;5006121;28;20522;-36
2022/01/26 13:50:38;;;;;;;22.67;3.08;;;;;;;;;;5006273;28;20817;-35
2022/01/26 13:53:16;;;;;;;13.07;2.33;;;;;;;;;;5007352;28;20070;-34
2022/01/26 13:56:01;;;;;;;9.57;2.13;;;;;;;;;;5004862;28;20113;-35
2022/01/26 14:01:14;;;;;;;21.20;2.97;;;;;;;;;;5006124;28;20037;-35
2022/01/26 14:03:41;;;;;;;18.90;2.88;;;;;;;;;;5007105;28;20097;-34
2022/01/26 14:06:09;;;;;;;20.95;2.53;;;;;;;;;;5010477;28;20395;-34
2022/01/26 14:08:36;;;;;;;17.98;2.78;;;;;;;;;;5012343;28;20089;-35
2022/01/26 14:11:04;;;;;;;22.55;3.20;;;;;;;;;;5011309;28;20450;-35
2022/01/26 14:13:31;;;;;;;25.30;3.15;;;;;;;;;;5008247;28;20038;-35
2022/01/26 14:15:59;;;;;;;30.15;3.53;;;;;;;;;;5004507;28;20104;-35
2022/01/26 14:21:11;;;;;;;10.13;1.95;;;;;;;;;;5005735;28;20045;-35
2022/01/26 14:23:59;;;;;;;14.52;2.63;;;;;;;;;;5005759;28;20125;-36
2022/01/26 14:26:31;;;;;;;10.63;1.77;;;;;;;;;;5009022;28;20041;-35
2022/01/26 14:28:59;;;;;;;20.38;2.92;;;;;;;;;;5006904;28;20034;-36
2022/01/26 14:31:37;;;;;;;41.08;5.05;;;;;;;;;;5008075;28;20395;-37
2022/01/26 14:34:33;;;;;;;52.13;6.28;;;;;;;;;;5010597;28;20042;-37
2022/01/26 14:54:24;;;;;;;55.63;7.88;;;;;;;;;;5007557;28;20057;-36
2022/01/26 15:31:45;;;;;;;120.63;17.05;;;;;;;;;;5010340;28;20076;-34
2022/01/26 15:34:03;;;;;;;104.63;14.57;;;;;;;;;;4999616;28;20033;-36
2022/01/26 15:44:45;;;;;;;72.28;11.20;;;;;;;;;;5004118;28;20033;-35
2022/01/26 15:50:48;;;;;;;61.60;10.90;;;;;;;;;;5001732;28;20048;-35
2022/01/26 15:52:52;;;;;;;60.08;8.90;;;;;;;;;;4991393;28;20522;-36
2022/01/26 16:06:23;;;;;;;53.00;9.13;;;;;;;;;;5006159;28;20140;-35
2022/01/26 16:38:16;;;;;;;53.00;8.05;;;;;;;;;;5000446;28;20077;-35
2022/01/26 17:11:26;;;;;;;43.38;8.07;;;;;;;;;;5001111;28;20061;-34
2022/01/26 17:34:28;;;;;;;41.28;10.02;;;;;;;;;;4999783;28;20080;-34
2022/01/26 17:47:27;;;;;;;44.15;7.90;;;;;;;;;;5004371;28;20045;-32
2022/01/26 18:39:29;;;;;;;30.20;5.60;;;;;;;;;;5001762;28;20503;-33
2022/01/26 18:50:07;;;;;;;30.00;5.97;;;;;;;;;;5005104;28;20455;-33
2022/01/26 18:52:36;;;;;;;25.65;5.10;;;;;;;;;;4996263;28;20037;-34
2022/01/26 18:55:05;;;;;;;25.23;5.25;;;;;;;;;;5002836;28;20038;-32
2022/01/26 18:57:32;;;;;;;20.80;4.82;;;;;;;;;;5003680;28;20110;-34
2022/01/26 18:59:59;;;;;;;15.90;4.22;;;;;;;;;;5006507;28;20376;-33
2022/01/26 19:02:26;;;;;;;24.88;4.63;;;;;;;;;;5001818;28;20396;-33
2022/01/26 19:04:53;;;;;;;24.35;4.50;;;;;;;;;;5006258;28;20467;-32
2022/01/26 19:07:20;;;;;;;17.70;4.50;;;;;;;;;;5001041;28;20040;-33
2022/01/26 19:09:50;;;;;;;15.63;3.30;;;;;;;;;;5007329;28;20171;-32
2022/01/26 19:12:19;;;;;;;18.70;3.97;;;;;;;;;;5010848;28;20118;-32
2022/01/26 19:14:56;;;;;;;21.67;4.82;;;;;;;;;;5004770;28;20033;-33
2022/01/26 19:17:29;;;;;;;21.65;4.25;;;;;;;;;;5005467;28;20042;-33
2022/01/26 19:27:45;;;;;;;18.13;4.00;;;;;;;;;;5007336;28;20037;-33
2022/01/26 19:46:25;;;;;;;18.35;3.65;;;;;;;;;;5009211;28;20404;-34
2022/01/26 19:54:22;;;;;;;17.08;4.10;;;;;;;;;;5006187;28;20412;-34
2022/01/26 19:56:49;;;;;;;18.45;3.97;;;;;;;;;;5009172;28;20030;-33
2022/01/26 19:59:16;;;;;;;26.98;5.00;;;;;;;;;;5005203;28;20036;-34
2022/01/26 20:01:43;;;;;;;21.98;4.45;;;;;;;;;;5004428;28;20026;-33
2022/01/26 20:04:10;;;;;;;18.20;4.22;;;;;;;;;;5005866;28;20080;-33
2022/01/26 20:06:39;;;;;;;21.35;3.83;;;;;;;;;;5008741;28;20117;-33
2022/01/26 20:09:16;;;;;;;24.35;3.80;;;;;;;;;;5009784;28;20041;-33
2022/01/26 20:14:34;;;;;;;19.08;4.00;;;;;;;;;;5004877;28;20588;-33
2022/01/26 20:17:01;;;;;;;17.23;3.55;;;;;;;;;;5004822;28;20048;-34
2022/01/26 20:19:29;;;;;;;21.92;4.22;;;;;;;;;;5006699;28;20077;-34
2022/01/26 20:21:56;;;;;;;15.15;3.45;;;;;;;;;;5006477;28;20054;-35
2022/01/26 20:24:23;;;;;;;18.50;3.88;;;;;;;;;;5007377;28;20037;-34
2022/01/26 20:26:54;;;;;;;21.58;3.60;;;;;;;;;;5007097;28;20061;-34
2022/01/26 20:29:26;;;;;;;17.92;3.72;;;;;;;;;;5006879;28;20044;-33
2022/01/26 20:31:53;;;;;;;23.20;3.83;;;;;;;;;;5005031;28;20041;-33
2022/01/26 20:34:20;;;;;;;17.85;3.30;;;;;;;;;;5005534;28;20076;-34
2022/01/26 20:36:47;;;;;;;17.73;3.42;;;;;;;;;;5003574;28;20079;-34
2022/01/26 20:39:14;;;;;;;25.52;4.95;;;;;;;;;;5004840;28;20030;-34
2022/01/26 20:41:42;;;;;;;23.77;4.38;;;;;;;;;;5004098;28;20025;-34
2022/01/26 20:44:09;;;;;;;23.63;3.55;;;;;;;;;;5005827;28;20044;-34
2022/01/26 20:46:36;;;;;;;20.38;4.05;;;;;;;;;;5007426;28;20034;-34
2022/01/26 20:49:03;;;;;;;25.27;3.72;;;;;;;;;;5005282;28;20033;-33
2022/01/26 20:51:30;;;;;;;22.25;4.00;;;;;;;;;;5008186;28;20060;-34
2022/01/26 20:53:57;;;;;;;21.38;3.60;;;;;;;;;;4988728;28;20475;-34
2022/01/26 20:56:24;;;;;;;20.98;3.53;;;;;;;;;;5006434;28;20034;-34
2022/01/26 20:58:52;;;;;;;27.35;3.72;;;;;;;;;;5005902;28;20575;-33
2022/01/26 21:01:19;;;;;;;27.27;3.58;;;;;;;;;;5006193;28;20415;-33
2022/01/26 21:03:46;;;;;;;22.08;3.90;;;;;;;;;;5005239;28;20033;-34
2022/01/26 21:06:14;;;;;;;25.90;3.75;;;;;;;;;;5003855;28;20045;-33
2022/01/26 21:08:41;;;;;;;28.02;3.55;;;;;;;;;;5008693;28;20044;-33
2022/01/26 21:11:08;;;;;;;28.30;3.72;;;;;;;;;;5005361;28;20032;-33
2022/01/26 21:13:37;;;;;;;20.67;3.20;;;;;;;;;;5005912;28;20101;-34
2022/01/26 21:16:05;;;;;;;23.23;3.53;;;;;;;;;;5005316;28;20105;-33
2022/01/26 21:18:35;;;;;;;23.75;3.55;;;;;;;;;;5009230;28;20021;-33
2022/01/26 21:21:04;;;;;;;24.63;4.03;;;;;;;;;;5005175;28;20030;-34
2022/01/26 21:23:31;;;;;;;27.25;3.90;;;;;;;;;;5003077;28;20439;-34
2022/01/26 21:25:58;;;;;;;22.58;2.95;;;;;;;;;;5003215;28;20038;-33
2022/01/26 21:28:25;;;;;;;33.05;4.10;;;;;;;;;;5002931;28;20484;-33
2022/01/26 21:30:52;;;;;;;25.63;3.25;;;;;;;;;;5003068;28;20370;-33